Аэропорт: Гродно. Гродно

ICAO: UMMG

METAR:
2018/11/19 10:00
UMMG 191000Z 08006G09MPS 9999 OVC009 03/01 Q1028 R35/190065 NOSIG
METAR:
2018/08/30 12:24
TAF UMMG 301100Z 3012/30218 18005MPS 9999 BKN020